createdAt,value
2018-05-27T00:01:17.830Z,9.63
2018-05-27T00:03:46.252Z,10.07
2018-05-27T00:06:14.477Z,11.67
2018-05-27T00:08:43.081Z,9.57
2018-05-27T00:11:10.636Z,9.87
2018-05-27T00:13:38.128Z,9.80
2018-05-27T00:16:05.639Z,9.40
2018-05-27T00:18:33.246Z,9.47
2018-05-27T00:21:00.751Z,9.63
2018-05-27T00:23:29.449Z,9.37
2018-05-27T00:25:57.695Z,9.43
2018-05-27T00:28:25.583Z,8.93
2018-05-27T00:30:53.859Z,8.90
2018-05-27T00:33:22.242Z,8.80
2018-05-27T00:35:50.504Z,9.83
2018-05-27T00:38:18.780Z,10.03
2018-05-27T00:40:47.025Z,9.23
2018-05-27T00:43:14.509Z,10.03
2018-05-27T00:45:42.795Z,9.47
2018-05-27T00:48:10.687Z,10.20
2018-05-27T00:50:38.186Z,9.70
2018-05-27T00:53:05.694Z,10.07
2018-05-27T00:55:33.957Z,9.10
2018-05-27T00:58:02.232Z,10.50
2018-05-27T01:00:29.760Z,9.07
2018-05-27T01:02:57.244Z,10.23
2018-05-27T01:05:24.826Z,8.70
2018-05-27T01:07:53.998Z,9.20
2018-05-27T01:10:23.119Z,9.40
2018-05-27T01:12:52.260Z,9.13
2018-05-27T01:15:21.802Z,10.37
2018-05-27T01:17:50.965Z,9.50
2018-05-27T01:20:20.093Z,10.40
2018-05-27T01:22:49.253Z,9.50
2018-05-27T01:25:18.402Z,9.97
2018-05-27T01:27:47.541Z,12.33
2018-05-27T01:30:16.708Z,10.13
2018-05-27T01:32:45.849Z,10.70
2018-05-27T01:35:14.999Z,9.47
2018-05-27T01:37:42.556Z,9.67
2018-05-27T01:40:10.051Z,9.93
2018-05-27T01:42:37.557Z,10.60
2018-05-27T01:45:05.062Z,10.00
2018-05-27T01:47:32.545Z,9.97
2018-05-27T01:50:00.042Z,10.10
2018-05-27T01:52:27.556Z,10.10
2018-05-27T01:54:55.804Z,9.80
2018-05-27T01:57:23.293Z,10.47
2018-05-27T01:59:51.775Z,9.93
2018-05-27T02:02:20.028Z,10.63
2018-05-27T02:04:47.511Z,10.10
2018-05-27T02:07:15.367Z,9.83
2018-05-27T02:09:43.622Z,10.03
2018-05-27T02:12:11.103Z,9.83
2018-05-27T02:14:39.356Z,9.90
2018-05-27T02:17:06.855Z,10.97
2018-05-27T02:19:34.348Z,10.90
2018-05-27T02:22:02.126Z,10.67
2018-05-27T02:24:29.618Z,10.03
2018-05-27T02:26:57.124Z,10.40
2018-05-27T02:29:25.035Z,10.03
2018-05-27T02:31:52.539Z,10.27
2018-05-27T02:34:20.022Z,9.67
2018-05-27T02:36:47.931Z,11.60
2018-05-27T02:39:15.429Z,10.73
2018-05-27T02:41:42.939Z,10.57
2018-05-27T02:44:10.457Z,10.00
2018-05-27T02:46:37.966Z,11.13
2018-05-27T02:49:05.451Z,10.20
2018-05-27T02:51:32.972Z,9.43
2018-05-27T02:54:00.966Z,9.83
2018-05-27T02:56:28.476Z,10.03
2018-05-27T02:58:56.757Z,10.40
2018-05-27T03:01:24.854Z,9.50
2018-05-27T03:03:52.687Z,10.20
2018-05-27T03:06:21.286Z,11.13
2018-05-27T03:08:48.790Z,10.53
2018-05-27T03:11:16.678Z,9.90
2018-05-27T03:13:44.203Z,9.70
2018-05-27T03:16:11.701Z,9.97
2018-05-27T03:18:39.186Z,10.33
2018-05-27T03:21:06.686Z,9.30
2018-05-27T03:23:34.184Z,9.77
2018-05-27T03:26:02.463Z,10.23
2018-05-27T03:28:30.754Z,9.27
2018-05-27T03:30:59.067Z,9.70
2018-05-27T03:33:26.547Z,9.53
2018-05-27T03:35:54.058Z,10.20
2018-05-27T03:38:21.538Z,9.90
2018-05-27T03:40:49.039Z,10.43
2018-05-27T03:43:17.313Z,11.20
2018-05-27T03:45:45.610Z,9.53
2018-05-27T03:48:13.165Z,10.30
2018-05-27T03:50:41.137Z,8.80
2018-05-27T03:53:09.042Z,9.80
2018-05-27T03:55:36.554Z,9.23
2018-05-27T03:58:04.063Z,10.20
2018-05-27T04:00:31.542Z,9.50
2018-05-27T04:02:59.044Z,9.53
2018-05-27T04:05:38.474Z,8.53
2018-05-27T04:08:17.833Z,9.63
2018-05-27T04:10:45.335Z,9.33
2018-05-27T04:13:12.918Z,9.70
2018-05-27T04:15:41.164Z,9.40
2018-05-27T04:18:09.063Z,9.50
2018-05-27T04:20:36.562Z,9.80
2018-05-27T04:23:04.059Z,8.70
2018-05-27T04:25:32.355Z,10.33
2018-05-27T04:27:59.934Z,9.10
2018-05-27T04:30:27.418Z,9.83
2018-05-27T04:32:55.324Z,8.93
2018-05-27T04:35:22.830Z,10.13
2018-05-27T04:37:50.315Z,9.30
2018-05-27T04:40:17.824Z,9.37
2018-05-27T04:42:45.307Z,9.90
2018-05-27T04:45:12.849Z,11.40
2018-05-27T04:47:40.332Z,9.30
2018-05-27T04:50:07.956Z,9.33
2018-05-27T04:52:35.486Z,10.37
2018-05-27T04:55:03.740Z,10.10
2018-05-27T04:57:31.990Z,9.10
2018-05-27T04:59:59.497Z,10.60
2018-05-27T05:02:27.000Z,8.77
2018-05-27T05:04:54.886Z,8.93
2018-05-27T05:07:22.378Z,9.57
2018-05-27T05:09:50.250Z,9.07
2018-05-27T05:12:17.744Z,9.23
2018-05-27T05:14:45.225Z,9.00
2018-05-27T05:17:13.221Z,9.33
2018-05-27T05:19:41.123Z,8.60
2018-05-27T05:22:08.636Z,8.23
2018-05-27T05:24:36.919Z,8.57
2018-05-27T05:27:05.176Z,8.93
2018-05-27T05:29:32.670Z,8.33
2018-05-27T05:32:00.181Z,8.60
2018-05-27T05:34:27.803Z,9.13
2018-05-27T05:36:55.279Z,8.67
2018-05-27T05:39:23.089Z,8.30
2018-05-27T05:41:51.357Z,9.33
2018-05-27T05:44:19.613Z,10.37
2018-05-27T05:46:48.935Z,9.40
2018-05-27T05:49:17.224Z,8.17
2018-05-27T05:51:44.719Z,8.07
2018-05-27T05:54:12.271Z,8.80
2018-05-27T05:56:39.752Z,9.20
2018-05-27T05:59:08.203Z,8.07
2018-05-27T06:01:35.963Z,10.80
2018-05-27T06:04:03.443Z,8.87
2018-05-27T06:06:30.919Z,8.97
2018-05-27T06:08:58.421Z,8.33
2018-05-27T06:11:26.778Z,8.90
2018-05-27T06:13:55.029Z,8.73
2018-05-27T06:16:22.544Z,9.27
2018-05-27T06:18:50.022Z,7.70
2018-05-27T06:21:17.514Z,8.43
2018-05-27T06:23:45.834Z,10.83
2018-05-27T06:26:13.310Z,8.77
2018-05-27T06:28:40.795Z,9.00
2018-05-27T06:31:08.616Z,8.30
2018-05-27T06:33:36.101Z,8.73
2018-05-27T06:36:03.874Z,8.23
2018-05-27T06:38:31.669Z,8.43
2018-05-27T06:40:59.909Z,9.23
2018-05-27T06:43:27.423Z,8.67
2018-05-27T06:45:54.929Z,12.10
2018-05-27T06:48:22.411Z,8.90
2018-05-27T06:50:50.651Z,8.70
2018-05-27T06:56:25.906Z,8.87
2018-05-27T06:58:53.406Z,9.17
2018-05-27T07:01:21.661Z,9.30
2018-05-27T07:03:49.134Z,8.57
2018-05-27T07:06:17.385Z,8.40
2018-05-27T07:08:44.877Z,8.17
2018-05-27T07:11:12.355Z,9.33
2018-05-27T07:13:39.855Z,8.30
2018-05-27T07:16:07.340Z,8.43
2018-05-27T07:18:35.581Z,8.73
2018-05-27T07:21:03.084Z,7.80
2018-05-27T07:23:30.571Z,7.90
2018-05-27T07:25:58.061Z,7.80
2018-05-27T07:28:26.307Z,8.03
2018-05-27T07:30:54.174Z,7.80
2018-05-27T07:33:21.665Z,8.43
2018-05-27T07:35:49.938Z,8.33
2018-05-27T07:38:18.212Z,7.03
2018-05-27T07:40:46.522Z,6.90
2018-05-27T07:43:14.769Z,7.33
2018-05-27T07:45:43.015Z,8.63
2018-05-27T07:48:10.559Z,8.77
2018-05-27T07:50:38.091Z,7.40
2018-05-27T07:53:05.562Z,7.77
2018-05-27T07:55:33.048Z,8.10
2018-05-27T07:58:02.389Z,9.63
2018-05-27T08:00:30.625Z,9.40
2018-05-27T08:02:58.124Z,8.53
2018-05-27T08:05:25.717Z,8.80
2018-05-27T08:07:53.198Z,8.77
2018-05-27T08:10:20.703Z,9.23
2018-05-27T08:12:48.206Z,8.70
2018-05-27T08:15:15.695Z,9.07
2018-05-27T08:17:43.938Z,10.03
2018-05-27T08:20:12.204Z,9.70
2018-05-27T08:22:39.712Z,8.87
2018-05-27T08:25:07.231Z,10.70
2018-05-27T08:27:35.122Z,11.70
2018-05-27T08:30:03.407Z,10.07
2018-05-27T08:32:31.645Z,9.83
2018-05-27T08:34:59.167Z,8.93
2018-05-27T08:37:26.685Z,9.80
2018-05-27T08:39:54.181Z,10.30
2018-05-27T08:42:22.087Z,8.40
2018-05-27T08:44:49.670Z,10.03
2018-05-27T08:48:00.320Z,9.40
2018-05-27T08:50:27.828Z,9.60
2018-05-27T08:52:55.312Z,9.50
2018-05-27T08:55:23.235Z,10.87
2018-05-27T08:57:51.491Z,9.33
2018-05-27T09:00:19.038Z,9.20
2018-05-27T09:02:46.518Z,9.63
2018-05-27T09:05:14.452Z,8.47
2018-05-27T09:07:42.706Z,9.80
2018-05-27T09:10:10.220Z,8.83
2018-05-27T09:12:38.477Z,10.63
2018-05-27T09:15:06.359Z,8.57
2018-05-27T09:17:34.624Z,9.80
2018-05-27T09:20:02.887Z,10.30
2018-05-27T09:22:36.916Z,10.00
2018-05-27T09:25:05.187Z,14.00
2018-05-27T09:27:32.718Z,9.73
2018-05-27T09:30:00.481Z,10.50
2018-05-27T09:32:27.975Z,9.93
2018-05-27T09:34:56.237Z,10.30
2018-05-27T09:37:24.506Z,10.37
2018-05-27T09:39:52.802Z,10.07
2018-05-27T09:42:21.404Z,10.30
2018-05-27T09:44:48.967Z,9.00
2018-05-27T09:47:16.846Z,14.03
2018-05-27T09:49:44.315Z,10.70
2018-05-27T09:52:11.833Z,9.67
2018-05-27T09:54:39.349Z,9.90
2018-05-27T09:57:07.144Z,8.80
2018-05-27T09:59:35.434Z,10.67
2018-05-27T10:02:02.928Z,9.90
2018-05-27T10:04:30.419Z,8.90
2018-05-27T10:06:58.698Z,10.77
2018-05-27T10:09:26.215Z,9.03
2018-05-27T10:11:53.715Z,8.40
2018-05-27T10:14:22.415Z,10.30
2018-05-27T10:16:50.685Z,9.20
2018-05-27T10:19:18.215Z,9.00
2018-05-27T10:21:45.789Z,8.43
2018-05-27T10:24:14.081Z,8.07
2018-05-27T10:26:41.574Z,8.63
2018-05-27T10:29:09.079Z,8.60
2018-05-27T10:31:37.343Z,8.40
2018-05-27T10:34:04.859Z,8.73
2018-05-27T10:36:32.419Z,8.20
2018-05-27T10:38:59.912Z,7.90
2018-05-27T10:41:27.438Z,8.30
2018-05-27T10:43:55.083Z,9.20
2018-05-27T10:46:22.571Z,8.63
2018-05-27T10:48:50.193Z,8.90
2018-05-27T10:51:17.725Z,8.10
2018-05-27T10:53:45.963Z,8.97
2018-05-27T10:56:13.455Z,9.37
2018-05-27T10:58:41.707Z,9.70
2018-05-27T11:01:09.192Z,8.73
2018-05-27T11:03:36.732Z,10.03
2018-05-27T11:06:04.218Z,9.63
2018-05-27T11:08:31.701Z,9.43
2018-05-27T11:10:59.212Z,9.90
2018-05-27T11:13:27.591Z,10.50
2018-05-27T11:15:55.423Z,9.87
2018-05-27T11:18:22.909Z,8.77
2018-05-27T11:20:50.442Z,10.07
2018-05-27T11:23:17.938Z,10.70
2018-05-27T11:25:45.434Z,11.83
2018-05-27T11:28:12.944Z,10.70
2018-05-27T11:30:41.207Z,11.27
2018-05-27T11:33:09.608Z,10.10
2018-05-27T11:35:37.288Z,10.70
2018-05-27T11:38:04.749Z,11.40
2018-05-27T11:40:32.273Z,11.20
2018-05-27T11:43:00.539Z,10.73
2018-05-27T11:45:28.819Z,11.23
2018-05-27T11:47:56.332Z,10.67
2018-05-27T11:50:23.894Z,10.50
2018-05-27T11:52:51.385Z,10.00
2018-05-27T11:55:19.212Z,11.40
2018-05-27T11:57:46.746Z,10.97
2018-05-27T12:00:14.246Z,10.20
2018-05-27T12:02:41.820Z,10.67
2018-05-27T12:05:10.170Z,11.70
2018-05-27T12:07:37.660Z,11.03
2018-05-27T12:10:06.023Z,10.53
2018-05-27T12:12:33.546Z,10.33
2018-05-27T12:15:01.167Z,13.03
2018-05-27T12:17:29.425Z,13.40
2018-05-27T12:19:56.921Z,12.70
2018-05-27T12:22:24.424Z,13.40
2018-05-27T12:24:53.605Z,14.13
2018-05-27T12:27:21.522Z,13.33
2018-05-27T12:29:49.450Z,15.47
2018-05-27T12:32:16.942Z,13.33
2018-05-27T12:34:45.231Z,14.23
2018-05-27T12:37:12.769Z,14.90
2018-05-27T12:39:41.065Z,14.40
2018-05-27T12:42:08.607Z,14.67
2018-05-27T12:44:36.126Z,14.50
2018-05-27T12:47:03.905Z,13.77
2018-05-27T12:49:31.425Z,14.20
2018-05-27T12:51:58.947Z,13.43
2018-05-27T12:54:26.467Z,14.97
2018-05-27T12:56:54.046Z,14.33
2018-05-27T12:59:21.526Z,15.07
2018-05-27T13:01:49.015Z,14.57
2018-05-27T13:04:16.969Z,14.37
2018-05-27T13:06:44.542Z,15.07
2018-05-27T13:09:12.032Z,15.13
2018-05-27T13:11:39.541Z,16.90
2018-05-27T13:14:07.020Z,15.03
2018-05-27T13:16:34.710Z,14.50
2018-05-27T13:19:02.434Z,13.20
2018-05-27T13:21:29.953Z,12.90
2018-05-27T13:23:57.455Z,13.37
2018-05-27T13:26:24.970Z,12.23
2018-05-27T13:28:53.239Z,13.63
2018-05-27T13:31:20.782Z,13.33
2018-05-27T13:33:49.087Z,11.57
2018-05-27T13:36:16.598Z,11.47
2018-05-27T13:38:44.103Z,12.77
2018-05-27T13:41:11.997Z,12.53
2018-05-27T13:43:39.510Z,11.60
2018-05-27T13:46:07.074Z,12.30
2018-05-27T13:48:35.344Z,11.60
2018-05-27T13:51:03.595Z,11.00
2018-05-27T13:53:31.142Z,11.33
2018-05-27T13:59:11.719Z,16.07
2018-05-27T14:01:39.246Z,17.50
2018-05-27T14:04:07.914Z,17.90
2018-05-27T14:06:35.433Z,15.93
2018-05-27T14:09:03.026Z,16.33
2018-05-27T14:11:30.542Z,19.13
2018-05-27T14:13:58.036Z,21.73
2018-05-27T14:16:26.346Z,21.50
2018-05-27T14:18:53.852Z,21.63
2018-05-27T14:21:21.329Z,21.87
2018-05-27T14:23:49.251Z,22.70
2018-05-27T14:26:16.836Z,24.10
2018-05-27T14:28:44.366Z,24.77
2018-05-27T14:31:12.228Z,23.67
2018-05-27T14:33:39.728Z,25.03
2018-05-27T14:36:07.263Z,25.40
2018-05-27T14:38:34.861Z,26.37
2018-05-27T14:41:02.363Z,26.00
2018-05-27T14:43:29.858Z,26.80
2018-05-27T14:45:58.559Z,25.27
2018-05-27T14:48:26.151Z,26.23
2018-05-27T14:50:53.687Z,25.37
2018-05-27T14:53:21.538Z,26.17
2018-05-27T14:55:49.825Z,23.70
2018-05-27T14:58:17.358Z,24.47
2018-05-27T15:00:45.836Z,23.23
2018-05-27T15:03:13.726Z,24.30
2018-05-27T15:05:41.283Z,22.60
2018-05-27T15:08:09.143Z,19.47
2018-05-27T15:10:36.633Z,21.80
2018-05-27T15:13:04.125Z,18.63
2018-05-27T15:15:31.635Z,20.77
2018-05-27T15:17:59.157Z,18.30
2018-05-27T15:20:27.727Z,17.37
2018-05-27T15:22:56.116Z,17.57
2018-05-27T15:25:24.417Z,15.53
2018-05-27T15:27:51.930Z,14.07
2018-05-27T15:30:20.261Z,15.43
2018-05-27T15:32:47.819Z,16.57
2018-05-27T15:35:15.322Z,15.30
2018-05-27T15:37:42.851Z,16.67
2018-05-27T15:40:10.341Z,15.67
2018-05-27T15:42:37.842Z,15.80
2018-05-27T15:45:05.348Z,16.10
2018-05-27T15:47:33.630Z,14.73
2018-05-27T15:50:01.311Z,13.73
2018-05-27T15:52:29.948Z,14.20
2018-05-27T15:54:57.511Z,14.17
2018-05-27T15:57:33.473Z,14.03
2018-05-27T16:00:01.012Z,14.90
2018-05-27T16:02:28.507Z,15.57
2018-05-27T16:04:56.699Z,14.93
2018-05-27T16:07:24.214Z,16.57
2018-05-27T16:09:51.841Z,16.90
2018-05-27T16:12:19.381Z,16.30
2018-05-27T16:14:46.920Z,16.47
2018-05-27T16:17:15.295Z,17.87
2018-05-27T16:19:43.606Z,17.00
2018-05-27T16:22:11.101Z,17.70
2018-05-27T16:24:38.605Z,17.17
2018-05-27T16:27:06.115Z,18.17
2018-05-27T16:29:33.683Z,18.60
2018-05-27T16:32:01.169Z,17.17
2018-05-27T16:34:29.777Z,18.33
2018-05-27T16:36:57.325Z,18.87
2018-05-27T16:39:24.859Z,19.10
2018-05-27T16:41:53.438Z,19.37
2018-05-27T16:44:20.944Z,19.90
2018-05-27T16:46:48.440Z,19.13
2018-05-27T16:49:16.815Z,21.10
2018-05-27T16:51:44.336Z,20.07
2018-05-27T16:54:11.829Z,19.77
2018-05-27T16:56:39.386Z,20.80
2018-05-27T16:59:06.891Z,20.90
2018-05-27T17:01:34.403Z,19.60
2018-05-27T17:04:02.663Z,20.37
2018-05-27T17:06:30.913Z,18.90
2018-05-27T17:08:58.410Z,20.07
2018-05-27T17:11:26.544Z,18.43
2018-05-27T17:13:54.082Z,17.50
2018-05-27T17:16:21.613Z,17.37
2018-05-27T17:18:50.314Z,15.47
2018-05-27T17:21:18.574Z,16.83
2018-05-27T17:23:46.104Z,16.10
2018-05-27T17:26:14.004Z,15.70
2018-05-27T17:28:42.277Z,15.77
2018-05-27T17:31:10.547Z,14.47
2018-05-27T17:33:38.157Z,14.03
2018-05-27T17:36:05.735Z,13.73
2018-05-27T17:38:33.629Z,14.80
2018-05-27T17:41:01.917Z,14.00
2018-05-27T17:43:30.194Z,15.10
2018-05-27T17:45:58.456Z,14.77
2018-05-27T17:48:26.073Z,13.60
2018-05-27T17:50:53.575Z,14.47
2018-05-27T17:53:21.883Z,13.87
2018-05-27T17:55:49.726Z,14.10
2018-05-27T17:58:18.011Z,15.57
2018-05-27T18:00:45.587Z,14.33
2018-05-27T18:03:13.105Z,16.23
2018-05-27T18:05:41.189Z,15.63
2018-05-27T18:08:09.447Z,13.27
2018-05-27T18:10:36.962Z,15.50
2018-05-27T18:13:04.476Z,14.90
2018-05-27T18:15:32.748Z,14.97
2018-05-27T18:18:00.673Z,15.70
2018-05-27T18:20:28.170Z,17.10
2018-05-27T18:22:56.437Z,15.23
2018-05-27T18:25:24.356Z,17.83
2018-05-27T18:27:51.855Z,17.63
2018-05-27T18:30:19.347Z,18.93
2018-05-27T18:32:46.896Z,17.70
2018-05-27T18:35:15.209Z,18.43
2018-05-27T18:37:42.724Z,18.47
2018-05-27T18:40:10.991Z,18.70
2018-05-27T18:42:39.995Z,19.80
2018-05-27T18:45:07.519Z,20.30
2018-05-27T18:47:35.050Z,19.30
2018-05-27T18:50:02.568Z,18.20
2018-05-27T18:52:30.469Z,17.43
2018-05-27T18:54:57.987Z,16.57
2018-05-27T18:57:26.261Z,15.37
2018-05-27T18:59:54.527Z,14.80
2018-05-27T19:02:22.102Z,14.97
2018-05-27T19:04:49.620Z,14.20
2018-05-27T19:07:17.139Z,14.10
2018-05-27T19:09:44.666Z,14.37
2018-05-27T19:12:12.923Z,12.50
2018-05-27T19:14:40.433Z,13.47
2018-05-27T19:17:07.962Z,13.73
2018-05-27T19:19:35.887Z,13.27
2018-05-27T19:22:03.416Z,14.00
2018-05-27T19:24:31.691Z,14.13
2018-05-27T19:26:59.201Z,15.40
2018-05-27T19:29:26.730Z,16.03
2018-05-27T19:31:54.251Z,17.37
2018-05-27T19:34:21.755Z,18.63
2018-05-27T19:36:49.260Z,17.20
2018-05-27T19:39:17.538Z,17.50
2018-05-27T19:41:45.039Z,16.10
2018-05-27T19:44:12.525Z,16.57
2018-05-27T19:46:40.035Z,17.23
2018-05-27T19:49:07.557Z,16.07
2018-05-27T19:51:35.823Z,18.07
2018-05-27T19:54:04.101Z,18.30
2018-05-27T19:56:32.365Z,18.60
2018-05-27T19:59:00.295Z,19.70
2018-05-27T20:01:27.815Z,18.70
2018-05-27T20:03:56.105Z,19.03
2018-05-27T20:06:23.616Z,17.67
2018-05-27T20:08:51.138Z,18.67
2018-05-27T20:11:18.751Z,19.43
2018-05-27T20:13:46.276Z,18.47
2018-05-27T20:16:13.804Z,19.43
2018-05-27T20:18:41.323Z,19.93
2018-05-27T20:21:09.626Z,21.77
2018-05-27T20:23:37.608Z,22.77
2018-05-27T20:26:05.081Z,21.17
2018-05-27T20:28:32.605Z,19.67
2018-05-27T20:31:00.142Z,19.07
2018-05-27T20:33:28.424Z,20.43
2018-05-27T20:35:55.926Z,22.53
2018-05-27T20:38:23.426Z,19.83
2018-05-27T20:40:51.684Z,20.60
2018-05-27T20:43:19.180Z,21.47
2018-05-27T20:45:46.691Z,21.23
2018-05-27T20:51:05.291Z,21.60
2018-05-27T20:53:32.788Z,22.30
2018-05-27T20:56:00.368Z,20.50
2018-05-27T20:58:27.897Z,22.20
2018-05-27T21:00:55.442Z,22.20
2018-05-27T21:03:23.092Z,22.03
2018-05-27T21:05:51.388Z,21.63
2018-05-27T21:08:18.882Z,21.87
2018-05-27T21:10:46.424Z,22.73
2018-05-27T21:13:14.019Z,21.10
2018-05-27T21:15:41.974Z,21.57
2018-05-27T21:18:09.532Z,21.30
2018-05-27T21:20:37.443Z,21.13
2018-05-27T21:23:04.966Z,20.63
2018-05-27T21:25:32.484Z,21.43
2018-05-27T21:28:00.440Z,21.57
2018-05-27T21:30:27.958Z,21.83
2018-05-27T21:32:56.314Z,22.80
2018-05-27T21:35:23.816Z,23.13
2018-05-27T21:37:51.414Z,21.83
2018-05-27T21:40:18.940Z,22.13
2018-05-27T21:42:46.935Z,21.70
2018-05-27T21:45:14.450Z,21.80
2018-05-27T21:47:42.201Z,22.60
2018-05-27T21:50:10.491Z,22.90
2018-05-27T21:52:38.130Z,23.63
2018-05-27T21:55:06.426Z,23.63
2018-05-27T21:57:34.691Z,24.00
2018-05-27T22:00:02.991Z,24.20
2018-05-27T22:02:30.492Z,24.27
2018-05-27T22:04:58.307Z,22.90
2018-05-27T22:07:25.810Z,25.07
2018-05-27T22:09:53.333Z,24.70
2018-05-27T22:12:21.180Z,25.50
2018-05-27T22:14:49.421Z,23.97
2018-05-27T22:17:16.951Z,24.17
2018-05-27T22:19:44.789Z,24.37
2018-05-27T22:22:12.310Z,25.73
2018-05-27T22:24:39.802Z,24.73
2018-05-27T22:27:07.668Z,25.40
2018-05-27T22:29:35.261Z,24.30
2018-05-27T22:32:02.781Z,25.77
2018-05-27T22:34:30.315Z,24.83
2018-05-27T22:36:57.866Z,24.47
2018-05-27T22:39:25.396Z,25.33
2018-05-27T22:41:53.332Z,24.90
2018-05-27T22:44:20.831Z,24.87
2018-05-27T22:46:48.742Z,24.53
2018-05-27T22:49:17.023Z,24.27
2018-05-27T22:51:44.516Z,25.40
2018-05-27T22:54:12.839Z,27.10
2018-05-27T22:56:40.519Z,25.73
2018-05-27T22:59:08.019Z,25.60
2018-05-27T23:01:37.213Z,26.97
2018-05-27T23:04:05.467Z,26.37
2018-05-27T23:06:32.984Z,27.50
2018-05-27T23:09:00.510Z,26.60
2018-05-27T23:11:28.345Z,26.80
2018-05-27T23:13:55.845Z,28.40
2018-05-27T23:16:24.891Z,29.13
2018-05-27T23:18:53.543Z,27.70
2018-05-27T23:21:21.805Z,27.67
2018-05-27T23:23:50.061Z,27.63
2018-05-27T23:26:17.945Z,28.80
2018-05-27T23:28:45.438Z,25.90
2018-05-27T23:31:13.335Z,25.97
2018-05-27T23:33:40.855Z,28.40
2018-05-27T23:36:08.398Z,30.73
2018-05-27T23:38:35.894Z,30.90
2018-05-27T23:41:03.750Z,30.40
2018-05-27T23:43:31.271Z,30.93
2018-05-27T23:45:59.544Z,32.60
2018-05-27T23:48:28.245Z,33.10
2018-05-27T23:50:55.769Z,33.83
2018-05-27T23:53:23.275Z,32.73
2018-05-27T23:55:50.808Z,34.07
2018-05-27T23:58:19.069Z,33.63
